sensor_id;sensor_type;location;lat;lon;timestamp;P1;durP1;ratioP1;P2;durP2;ratioP2
25479;SDS011;13393;49.378;8.686;2023-05-16T00:01:10;18.42;;;14.10;;
25479;SDS011;13393;49.378;8.686;2023-05-16T00:03:39;18.77;;;15.20;;
25479;SDS011;13393;49.378;8.686;2023-05-16T00:06:07;19.17;;;16.05;;
25479;SDS011;13393;49.378;8.686;2023-05-16T00:08:33;21.23;;;16.80;;
25479;SDS011;13393;49.378;8.686;2023-05-16T00:10:59;21.17;;;16.90;;
25479;SDS011;13393;49.378;8.686;2023-05-16T00:13:26;22.20;;;16.77;;
25479;SDS011;13393;49.378;8.686;2023-05-16T00:15:53;20.95;;;16.73;;
25479;SDS011;13393;49.378;8.686;2023-05-16T00:18:20;22.27;;;17.88;;
25479;SDS011;13393;49.378;8.686;2023-05-16T00:20:48;24.98;;;18.98;;
25479;SDS011;13393;49.378;8.686;2023-05-16T00:23:15;24.63;;;18.58;;
25479;SDS011;13393;49.378;8.686;2023-05-16T00:25:42;24.95;;;17.15;;
25479;SDS011;13393;49.378;8.686;2023-05-16T00:28:09;21.55;;;17.88;;
25479;SDS011;13393;49.378;8.686;2023-05-16T00:30:35;19.25;;;17.15;;
25479;SDS011;13393;49.378;8.686;2023-05-16T00:33:01;18.88;;;16.80;;
25479;SDS011;13393;49.378;8.686;2023-05-16T00:35:28;21.02;;;16.77;;
25479;SDS011;13393;49.378;8.686;2023-05-16T00:37:55;20.45;;;17.83;;
25479;SDS011;13393;49.378;8.686;2023-05-16T00:40:22;23.00;;;17.88;;
25479;SDS011;13393;49.378;8.686;2023-05-16T00:42:48;20.00;;;16.92;;
25479;SDS011;13393;49.378;8.686;2023-05-16T00:45:14;22.60;;;17.92;;
25479;SDS011;13393;49.378;8.686;2023-05-16T00:47:41;22.80;;;16.80;;
25479;SDS011;13393;49.378;8.686;2023-05-16T00:50:07;20.05;;;17.15;;
25479;SDS011;13393;49.378;8.686;2023-05-16T00:52:34;21.40;;;17.83;;
25479;SDS011;13393;49.378;8.686;2023-05-16T00:55:02;19.98;;;17.65;;
25479;SDS011;13393;49.378;8.686;2023-05-16T00:57:29;21.05;;;17.38;;
25479;SDS011;13393;49.378;8.686;2023-05-16T00:59:55;22.48;;;19.08;;
25479;SDS011;13393;49.378;8.686;2023-05-16T01:02:21;22.10;;;18.90;;
25479;SDS011;13393;49.378;8.686;2023-05-16T01:04:52;23.30;;;19.55;;
25479;SDS011;13393;49.378;8.686;2023-05-16T01:07:18;28.70;;;22.13;;
25479;SDS011;13393;49.378;8.686;2023-05-16T01:09:45;26.52;;;21.23;;
25479;SDS011;13393;49.378;8.686;2023-05-16T01:12:13;30.45;;;23.23;;
25479;SDS011;13393;49.378;8.686;2023-05-16T01:14:44;29.98;;;23.23;;
25479;SDS011;13393;49.378;8.686;2023-05-16T01:17:12;32.05;;;25.33;;
25479;SDS011;13393;49.378;8.686;2023-05-16T01:19:50;32.70;;;25.15;;
25479;SDS011;13393;49.378;8.686;2023-05-16T01:22:19;34.40;;;26.77;;
25479;SDS011;13393;49.378;8.686;2023-05-16T01:24:53;39.28;;;27.38;;
25479;SDS011;13393;49.378;8.686;2023-05-16T01:27:26;34.10;;;25.83;;
25479;SDS011;13393;49.378;8.686;2023-05-16T01:29:54;35.40;;;27.08;;
25479;SDS011;13393;49.378;8.686;2023-05-16T01:32:20;38.22;;;28.45;;
25479;SDS011;13393;49.378;8.686;2023-05-16T01:34:48;37.40;;;29.13;;
25479;SDS011;13393;49.378;8.686;2023-05-16T01:37:15;40.55;;;29.83;;
25479;SDS011;13393;49.378;8.686;2023-05-16T01:39:44;39.38;;;29.50;;
25479;SDS011;13393;49.378;8.686;2023-05-16T01:42:12;41.08;;;30.77;;
25479;SDS011;13393;49.378;8.686;2023-05-16T01:44:42;39.22;;;30.35;;
25479;SDS011;13393;49.378;8.686;2023-05-16T01:47:10;38.55;;;30.75;;
25479;SDS011;13393;49.378;8.686;2023-05-16T01:49:38;38.60;;;30.13;;
25479;SDS011;13393;49.378;8.686;2023-05-16T01:52:07;39.78;;;29.77;;
25479;SDS011;13393;49.378;8.686;2023-05-16T01:54:35;41.00;;;30.70;;
25479;SDS011;13393;49.378;8.686;2023-05-16T01:57:03;38.83;;;30.38;;
25479;SDS011;13393;49.378;8.686;2023-05-16T01:59:30;42.47;;;30.77;;
25479;SDS011;13393;49.378;8.686;2023-05-16T02:01:58;40.80;;;30.73;;
25479;SDS011;13393;49.378;8.686;2023-05-16T02:04:24;47.40;;;32.83;;
25479;SDS011;13393;49.378;8.686;2023-05-16T02:06:51;43.75;;;31.45;;
25479;SDS011;13393;49.378;8.686;2023-05-16T02:09:17;40.58;;;32.17;;
25479;SDS011;13393;49.378;8.686;2023-05-16T02:11:44;44.10;;;32.35;;
25479;SDS011;13393;49.378;8.686;2023-05-16T02:14:11;43.65;;;31.73;;
25479;SDS011;13393;49.378;8.686;2023-05-16T02:16:37;37.85;;;29.73;;
25479;SDS011;13393;49.378;8.686;2023-05-16T02:19:05;42.83;;;31.15;;
25479;SDS011;13393;49.378;8.686;2023-05-16T02:21:31;37.63;;;29.65;;
25479;SDS011;13393;49.378;8.686;2023-05-16T02:23:57;37.67;;;29.80;;
25479;SDS011;13393;49.378;8.686;2023-05-16T02:26:24;41.90;;;31.00;;
25479;SDS011;13393;49.378;8.686;2023-05-16T02:28:50;40.58;;;31.35;;
25479;SDS011;13393;49.378;8.686;2023-05-16T02:31:24;42.35;;;31.85;;
25479;SDS011;13393;49.378;8.686;2023-05-16T02:33:50;42.63;;;31.00;;
25479;SDS011;13393;49.378;8.686;2023-05-16T02:36:18;40.45;;;31.10;;
25479;SDS011;13393;49.378;8.686;2023-05-16T02:38:45;45.20;;;33.38;;
25479;SDS011;13393;49.378;8.686;2023-05-16T02:41:11;45.40;;;34.17;;
25479;SDS011;13393;49.378;8.686;2023-05-16T02:43:37;43.85;;;33.40;;
25479;SDS011;13393;49.378;8.686;2023-05-16T02:46:04;46.13;;;33.17;;
25479;SDS011;13393;49.378;8.686;2023-05-16T02:48:30;44.67;;;33.80;;
25479;SDS011;13393;49.378;8.686;2023-05-16T02:50:57;46.58;;;35.30;;
25479;SDS011;13393;49.378;8.686;2023-05-16T02:53:24;43.60;;;34.05;;
25479;SDS011;13393;49.378;8.686;2023-05-16T02:55:51;44.97;;;34.40;;
25479;SDS011;13393;49.378;8.686;2023-05-16T02:58:17;43.08;;;33.45;;
25479;SDS011;13393;49.378;8.686;2023-05-16T03:00:43;46.25;;;35.22;;
25479;SDS011;13393;49.378;8.686;2023-05-16T03:03:10;49.20;;;35.35;;
25479;SDS011;13393;49.378;8.686;2023-05-16T03:05:36;45.33;;;34.35;;
25479;SDS011;13393;49.378;8.686;2023-05-16T03:08:03;43.40;;;33.90;;
25479;SDS011;13393;49.378;8.686;2023-05-16T03:10:30;44.95;;;33.33;;
25479;SDS011;13393;49.378;8.686;2023-05-16T03:12:57;45.58;;;33.97;;
25479;SDS011;13393;49.378;8.686;2023-05-16T03:15:23;44.85;;;32.30;;
25479;SDS011;13393;49.378;8.686;2023-05-16T03:17:49;43.45;;;32.15;;
25479;SDS011;13393;49.378;8.686;2023-05-16T03:20:16;41.67;;;31.35;;
25479;SDS011;13393;49.378;8.686;2023-05-16T03:22:43;42.30;;;31.02;;
25479;SDS011;13393;49.378;8.686;2023-05-16T03:25:09;39.72;;;30.10;;
25479;SDS011;13393;49.378;8.686;2023-05-16T03:27:37;40.00;;;30.40;;
25479;SDS011;13393;49.378;8.686;2023-05-16T03:30:04;40.40;;;30.65;;
25479;SDS011;13393;49.378;8.686;2023-05-16T03:32:31;36.13;;;27.00;;
25479;SDS011;13393;49.378;8.686;2023-05-16T03:34:58;42.55;;;28.38;;
25479;SDS011;13393;49.378;8.686;2023-05-16T03:37:24;37.65;;;28.38;;
25479;SDS011;13393;49.378;8.686;2023-05-16T03:39:51;37.35;;;27.10;;
25479;SDS011;13393;49.378;8.686;2023-05-16T03:42:17;37.65;;;26.83;;
25479;SDS011;13393;49.378;8.686;2023-05-16T03:44:45;29.92;;;23.92;;
25479;SDS011;13393;49.378;8.686;2023-05-16T03:47:11;37.20;;;26.08;;
25479;SDS011;13393;49.378;8.686;2023-05-16T03:49:38;31.00;;;24.15;;
25479;SDS011;13393;49.378;8.686;2023-05-16T03:52:04;32.90;;;23.40;;
25479;SDS011;13393;49.378;8.686;2023-05-16T03:54:31;34.97;;;25.30;;
25479;SDS011;13393;49.378;8.686;2023-05-16T03:56:57;31.50;;;23.38;;
25479;SDS011;13393;49.378;8.686;2023-05-16T03:59:24;33.88;;;23.23;;
25479;SDS011;13393;49.378;8.686;2023-05-16T04:01:51;31.52;;;22.85;;
25479;SDS011;13393;49.378;8.686;2023-05-16T04:04:18;29.60;;;22.15;;
25479;SDS011;13393;49.378;8.686;2023-05-16T04:06:44;31.10;;;22.45;;
25479;SDS011;13393;49.378;8.686;2023-05-16T04:09:11;27.40;;;21.33;;
25479;SDS011;13393;49.378;8.686;2023-05-16T04:11:37;27.92;;;21.95;;
25479;SDS011;13393;49.378;8.686;2023-05-16T04:14:04;30.45;;;22.00;;
25479;SDS011;13393;49.378;8.686;2023-05-16T04:16:30;25.52;;;20.42;;
25479;SDS011;13393;49.378;8.686;2023-05-16T04:18:58;29.98;;;21.05;;
25479;SDS011;13393;49.378;8.686;2023-05-16T04:21:24;29.65;;;20.98;;
25479;SDS011;13393;49.378;8.686;2023-05-16T04:23:50;30.95;;;21.23;;
25479;SDS011;13393;49.378;8.686;2023-05-16T04:26:17;32.60;;;21.90;;
25479;SDS011;13393;49.378;8.686;2023-05-16T04:28:45;27.38;;;21.25;;
25479;SDS011;13393;49.378;8.686;2023-05-16T04:31:12;28.40;;;21.25;;
25479;SDS011;13393;49.378;8.686;2023-05-16T04:33:39;29.15;;;21.17;;
25479;SDS011;13393;49.378;8.686;2023-05-16T04:36:07;28.85;;;20.38;;
25479;SDS011;13393;49.378;8.686;2023-05-16T04:38:34;30.40;;;21.17;;
25479;SDS011;13393;49.378;8.686;2023-05-16T04:41:00;26.73;;;20.35;;
25479;SDS011;13393;49.378;8.686;2023-05-16T04:43:27;29.63;;;21.35;;
25479;SDS011;13393;49.378;8.686;2023-05-16T04:45:54;26.05;;;19.95;;
25479;SDS011;13393;49.378;8.686;2023-05-16T04:48:22;31.02;;;20.67;;
25479;SDS011;13393;49.378;8.686;2023-05-16T04:50:48;30.70;;;20.50;;
25479;SDS011;13393;49.378;8.686;2023-05-16T04:53:16;25.30;;;19.13;;
25479;SDS011;13393;49.378;8.686;2023-05-16T04:55:43;24.17;;;19.27;;
25479;SDS011;13393;49.378;8.686;2023-05-16T04:58:09;26.65;;;19.17;;
25479;SDS011;13393;49.378;8.686;2023-05-16T05:00:37;25.50;;;19.92;;
25479;SDS011;13393;49.378;8.686;2023-05-16T05:03:03;26.98;;;19.98;;
25479;SDS011;13393;49.378;8.686;2023-05-16T05:05:30;24.70;;;18.80;;
25479;SDS011;13393;49.378;8.686;2023-05-16T05:07:56;25.08;;;18.60;;
25479;SDS011;13393;49.378;8.686;2023-05-16T05:10:24;26.58;;;18.13;;
25479;SDS011;13393;49.378;8.686;2023-05-16T05:12:51;29.90;;;19.00;;
25479;SDS011;13393;49.378;8.686;2023-05-16T05:15:18;34.17;;;21.05;;
25479;SDS011;13393;49.378;8.686;2023-05-16T05:17:45;29.48;;;19.20;;
25479;SDS011;13393;49.378;8.686;2023-05-16T05:20:11;28.23;;;19.67;;
25479;SDS011;13393;49.378;8.686;2023-05-16T05:22:38;24.50;;;19.15;;
25479;SDS011;13393;49.378;8.686;2023-05-16T05:25:04;28.42;;;19.90;;
25479;SDS011;13393;49.378;8.686;2023-05-16T05:27:32;29.75;;;19.42;;
25479;SDS011;13393;49.378;8.686;2023-05-16T05:29:59;28.10;;;19.20;;
25479;SDS011;13393;49.378;8.686;2023-05-16T05:32:25;26.48;;;18.60;;
25479;SDS011;13393;49.378;8.686;2023-05-16T05:34:51;28.60;;;18.73;;
25479;SDS011;13393;49.378;8.686;2023-05-16T05:37:18;28.25;;;20.02;;
25479;SDS011;13393;49.378;8.686;2023-05-16T05:39:44;24.50;;;18.00;;
25479;SDS011;13393;49.378;8.686;2023-05-16T05:42:10;26.90;;;18.70;;
25479;SDS011;13393;49.378;8.686;2023-05-16T05:44:38;29.52;;;20.25;;
25479;SDS011;13393;49.378;8.686;2023-05-16T05:47:05;28.65;;;19.58;;
25479;SDS011;13393;49.378;8.686;2023-05-16T05:49:31;27.60;;;18.73;;
25479;SDS011;13393;49.378;8.686;2023-05-16T05:51:58;28.63;;;19.33;;
25479;SDS011;13393;49.378;8.686;2023-05-16T05:54:24;26.15;;;18.73;;
25479;SDS011;13393;49.378;8.686;2023-05-16T05:56:51;30.45;;;19.75;;
25479;SDS011;13393;49.378;8.686;2023-05-16T05:59:17;28.85;;;18.52;;
25479;SDS011;13393;49.378;8.686;2023-05-16T06:01:45;29.40;;;18.52;;
25479;SDS011;13393;49.378;8.686;2023-05-16T06:04:11;25.38;;;18.38;;
25479;SDS011;13393;49.378;8.686;2023-05-16T06:06:37;27.23;;;19.35;;
25479;SDS011;13393;49.378;8.686;2023-05-16T06:09:04;27.95;;;17.77;;
25479;SDS011;13393;49.378;8.686;2023-05-16T06:11:31;26.85;;;18.70;;
25479;SDS011;13393;49.378;8.686;2023-05-16T06:13:57;28.48;;;19.10;;
25479;SDS011;13393;49.378;8.686;2023-05-16T06:16:23;28.38;;;18.45;;
25479;SDS011;13393;49.378;8.686;2023-05-16T06:18:51;23.27;;;17.13;;
25479;SDS011;13393;49.378;8.686;2023-05-16T06:21:18;25.25;;;16.92;;
25479;SDS011;13393;49.378;8.686;2023-05-16T06:23:44;28.85;;;17.35;;
25479;SDS011;13393;49.378;8.686;2023-05-16T06:26:10;25.65;;;16.90;;
25479;SDS011;13393;49.378;8.686;2023-05-16T06:28:37;25.27;;;16.48;;
25479;SDS011;13393;49.378;8.686;2023-05-16T06:31:03;28.48;;;18.10;;
25479;SDS011;13393;49.378;8.686;2023-05-16T06:33:29;21.65;;;16.33;;
25479;SDS011;13393;49.378;8.686;2023-05-16T06:35:57;20.88;;;16.02;;
25479;SDS011;13393;49.378;8.686;2023-05-16T06:38:23;22.65;;;16.15;;
25479;SDS011;13393;49.378;8.686;2023-05-16T06:40:50;24.42;;;15.45;;
25479;SDS011;13393;49.378;8.686;2023-05-16T06:43:16;26.25;;;15.70;;
25479;SDS011;13393;49.378;8.686;2023-05-16T06:45:43;21.50;;;15.18;;
25479;SDS011;13393;49.378;8.686;2023-05-16T06:48:13;20.15;;;14.65;;
25479;SDS011;13393;49.378;8.686;2023-05-16T06:50:40;17.75;;;13.55;;
25479;SDS011;13393;49.378;8.686;2023-05-16T06:53:07;19.92;;;13.85;;
25479;SDS011;13393;49.378;8.686;2023-05-16T06:55:36;21.02;;;13.95;;
25479;SDS011;13393;49.378;8.686;2023-05-16T06:58:02;19.55;;;12.85;;
25479;SDS011;13393;49.378;8.686;2023-05-16T07:00:28;18.83;;;12.95;;
25479;SDS011;13393;49.378;8.686;2023-05-16T07:02:55;17.00;;;12.05;;
25479;SDS011;13393;49.378;8.686;2023-05-16T07:05:21;17.95;;;11.73;;
25479;SDS011;13393;49.378;8.686;2023-05-16T07:07:47;16.73;;;12.45;;
25479;SDS011;13393;49.378;8.686;2023-05-16T07:10:15;19.25;;;12.27;;
25479;SDS011;13393;49.378;8.686;2023-05-16T07:12:42;16.83;;;12.02;;
25479;SDS011;13393;49.378;8.686;2023-05-16T07:15:09;15.98;;;10.13;;
25479;SDS011;13393;49.378;8.686;2023-05-16T07:17:35;15.93;;;10.45;;
25479;SDS011;13393;49.378;8.686;2023-05-16T07:20:02;15.68;;;10.30;;
25479;SDS011;13393;49.378;8.686;2023-05-16T07:22:28;13.88;;;9.75;;
25479;SDS011;13393;49.378;8.686;2023-05-16T07:24:55;11.90;;;8.40;;
25479;SDS011;13393;49.378;8.686;2023-05-16T07:27:26;12.25;;;9.30;;
25479;SDS011;13393;49.378;8.686;2023-05-16T07:29:52;15.45;;;9.27;;
25479;SDS011;13393;49.378;8.686;2023-05-16T07:32:19;13.40;;;9.57;;
25479;SDS011;13393;49.378;8.686;2023-05-16T07:34:45;12.70;;;9.00;;
25479;SDS011;13393;49.378;8.686;2023-05-16T07:37:11;15.55;;;8.57;;
25479;SDS011;13393;49.378;8.686;2023-05-16T07:39:40;13.27;;;8.70;;
25479;SDS011;13393;49.378;8.686;2023-05-16T07:42:07;9.68;;;7.25;;
25479;SDS011;13393;49.378;8.686;2023-05-16T07:44:34;9.45;;;6.95;;
25479;SDS011;13393;49.378;8.686;2023-05-16T07:47:01;10.63;;;7.35;;
25479;SDS011;13393;49.378;8.686;2023-05-16T07:49:27;10.38;;;6.60;;
25479;SDS011;13393;49.378;8.686;2023-05-16T07:51:53;9.85;;;6.30;;
25479;SDS011;13393;49.378;8.686;2023-05-16T07:54:20;9.48;;;6.75;;
25479;SDS011;13393;49.378;8.686;2023-05-16T07:56:46;8.35;;;5.80;;
25479;SDS011;13393;49.378;8.686;2023-05-16T07:59:12;8.70;;;5.53;;
25479;SDS011;13393;49.378;8.686;2023-05-16T08:01:40;8.20;;;5.78;;
25479;SDS011;13393;49.378;8.686;2023-05-16T08:04:07;8.27;;;6.00;;
25479;SDS011;13393;49.378;8.686;2023-05-16T08:06:33;8.05;;;4.78;;
25479;SDS011;13393;49.378;8.686;2023-05-16T08:09:00;5.78;;;3.88;;
25479;SDS011;13393;49.378;8.686;2023-05-16T08:11:26;3.63;;;3.20;;
25479;SDS011;13393;49.378;8.686;2023-05-16T08:13:53;6.00;;;2.88;;
25479;SDS011;13393;49.378;8.686;2023-05-16T08:16:19;2.67;;;2.47;;
25479;SDS011;13393;49.378;8.686;2023-05-16T08:18:47;3.28;;;2.50;;
25479;SDS011;13393;49.378;8.686;2023-05-16T08:21:13;3.63;;;2.67;;
25479;SDS011;13393;49.378;8.686;2023-05-16T08:23:40;4.20;;;2.90;;
25479;SDS011;13393;49.378;8.686;2023-05-16T08:26:07;3.63;;;2.63;;
25479;SDS011;13393;49.378;8.686;2023-05-16T08:28:33;2.38;;;2.17;;
25479;SDS011;13393;49.378;8.686;2023-05-16T08:31:00;3.13;;;2.08;;
25479;SDS011;13393;49.378;8.686;2023-05-16T08:33:26;1.75;;;1.65;;
25479;SDS011;13393;49.378;8.686;2023-05-16T08:35:54;1.98;;;1.77;;
25479;SDS011;13393;49.378;8.686;2023-05-16T08:38:20;2.55;;;1.58;;
25479;SDS011;13393;49.378;8.686;2023-05-16T08:40:46;1.60;;;1.50;;
25479;SDS011;13393;49.378;8.686;2023-05-16T08:43:13;1.60;;;1.40;;
25479;SDS011;13393;49.378;8.686;2023-05-16T08:45:39;1.70;;;1.25;;
25479;SDS011;13393;49.378;8.686;2023-05-16T08:48:06;1.77;;;1.20;;
25479;SDS011;13393;49.378;8.686;2023-05-16T08:50:33;1.77;;;1.20;;
25479;SDS011;13393;49.378;8.686;2023-05-16T08:53:04;1.88;;;1.25;;
25479;SDS011;13393;49.378;8.686;2023-05-16T08:55:31;1.33;;;1.15;;
25479;SDS011;13393;49.378;8.686;2023-05-16T08:57:58;1.25;;;1.15;;
25479;SDS011;13393;49.378;8.686;2023-05-16T09:00:25;1.23;;;1.10;;
25479;SDS011;13393;49.378;8.686;2023-05-16T09:02:51;1.33;;;1.17;;
25479;SDS011;13393;49.378;8.686;2023-05-16T09:05:18;1.38;;;1.10;;
25479;SDS011;13393;49.378;8.686;2023-05-16T09:07:44;1.20;;;1.17;;
25479;SDS011;13393;49.378;8.686;2023-05-16T09:10:12;6.38;;;1.33;;
25479;SDS011;13393;49.378;8.686;2023-05-16T09:12:39;3.20;;;1.20;;
25479;SDS011;13393;49.378;8.686;2023-05-16T09:15:06;1.40;;;1.10;;
25479;SDS011;13393;49.378;8.686;2023-05-16T09:17:33;1.52;;;1.20;;
25479;SDS011;13393;49.378;8.686;2023-05-16T09:20:06;1.50;;;1.15;;
25479;SDS011;13393;49.378;8.686;2023-05-16T09:22:33;1.20;;;1.13;;
25479;SDS011;13393;49.378;8.686;2023-05-16T09:24:59;2.95;;;1.10;;
25479;SDS011;13393;49.378;8.686;2023-05-16T09:27:29;1.40;;;1.20;;
25479;SDS011;13393;49.378;8.686;2023-05-16T09:29:56;3.25;;;1.67;;
25479;SDS011;13393;49.378;8.686;2023-05-16T09:32:23;3.45;;;1.33;;
25479;SDS011;13393;49.378;8.686;2023-05-16T09:34:51;2.75;;;1.25;;
25479;SDS011;13393;49.378;8.686;2023-05-16T09:37:18;1.45;;;1.10;;
25479;SDS011;13393;49.378;8.686;2023-05-16T09:39:45;3.63;;;1.55;;
25479;SDS011;13393;49.378;8.686;2023-05-16T09:42:12;1.50;;;1.40;;
25479;SDS011;13393;49.378;8.686;2023-05-16T09:44:40;3.42;;;1.17;;
25479;SDS011;13393;49.378;8.686;2023-05-16T09:47:06;3.30;;;1.38;;
25479;SDS011;13393;49.378;8.686;2023-05-16T09:49:33;1.77;;;1.40;;
25479;SDS011;13393;49.378;8.686;2023-05-16T09:52:02;1.27;;;1.20;;
25479;SDS011;13393;49.378;8.686;2023-05-16T09:54:29;1.90;;;0.95;;
25479;SDS011;13393;49.378;8.686;2023-05-16T09:56:56;2.72;;;1.23;;
25479;SDS011;13393;49.378;8.686;2023-05-16T09:59:23;0.73;;;0.70;;
25479;SDS011;13393;49.378;8.686;2023-05-16T10:01:51;1.00;;;0.70;;
25479;SDS011;13393;49.378;8.686;2023-05-16T10:04:18;1.00;;;1.00;;
25479;SDS011;13393;49.378;8.686;2023-05-16T10:06:44;0.82;;;0.77;;
25479;SDS011;13393;49.378;8.686;2023-05-16T10:09:11;1.15;;;0.90;;
25479;SDS011;13393;49.378;8.686;2023-05-16T10:11:38;2.67;;;1.02;;
25479;SDS011;13393;49.378;8.686;2023-05-16T10:14:06;1.77;;;0.80;;
25479;SDS011;13393;49.378;8.686;2023-05-16T10:16:32;0.80;;;0.80;;
25479;SDS011;13393;49.378;8.686;2023-05-16T10:19:02;1.45;;;1.33;;
25479;SDS011;13393;49.378;8.686;2023-05-16T10:21:29;0.70;;;0.70;;
25479;SDS011;13393;49.378;8.686;2023-05-16T10:23:58;0.73;;;0.73;;
25479;SDS011;13393;49.378;8.686;2023-05-16T10:26:27;2.00;;;0.90;;
25479;SDS011;13393;49.378;8.686;2023-05-16T10:28:54;0.90;;;0.80;;
25479;SDS011;13393;49.378;8.686;2023-05-16T10:31:20;1.65;;;0.80;;
25479;SDS011;13393;49.378;8.686;2023-05-16T10:33:48;0.70;;;0.60;;
25479;SDS011;13393;49.378;8.686;2023-05-16T10:36:16;2.33;;;0.82;;
25479;SDS011;13393;49.378;8.686;2023-05-16T10:38:42;2.35;;;1.00;;
25479;SDS011;13393;49.378;8.686;2023-05-16T10:41:10;0.82;;;0.82;;
25479;SDS011;13393;49.378;8.686;2023-05-16T10:43:36;1.15;;;1.05;;
25479;SDS011;13393;49.378;8.686;2023-05-16T10:46:04;4.80;;;0.80;;
25479;SDS011;13393;49.378;8.686;2023-05-16T10:48:31;2.75;;;0.93;;
25479;SDS011;13393;49.378;8.686;2023-05-16T10:50:57;1.05;;;0.90;;
25479;SDS011;13393;49.378;8.686;2023-05-16T10:53:29;2.17;;;0.90;;
25479;SDS011;13393;49.378;8.686;2023-05-16T10:56:09;2.95;;;1.00;;
25479;SDS011;13393;49.378;8.686;2023-05-16T10:58:43;1.02;;;0.90;;
25479;SDS011;13393;49.378;8.686;2023-05-16T11:01:16;5.00;;;1.03;;
25479;SDS011;13393;49.378;8.686;2023-05-16T11:06:25;2.13;;;1.20;;
25479;SDS011;13393;49.378;8.686;2023-05-16T11:08:58;2.38;;;1.00;;
25479;SDS011;13393;49.378;8.686;2023-05-16T11:11:39;2.75;;;1.00;;
25479;SDS011;13393;49.378;8.686;2023-05-16T11:14:05;2.83;;;1.13;;
25479;SDS011;13393;49.378;8.686;2023-05-16T11:16:32;3.60;;;1.17;;
25479;SDS011;13393;49.378;8.686;2023-05-16T11:19:03;2.10;;;1.13;;
25479;SDS011;13393;49.378;8.686;2023-05-16T11:26:54;5.18;;;0.95;;
25479;SDS011;13393;49.378;8.686;2023-05-16T11:29:20;3.10;;;1.15;;
25479;SDS011;13393;49.378;8.686;2023-05-16T11:31:47;3.70;;;1.15;;
25479;SDS011;13393;49.378;8.686;2023-05-16T11:34:13;2.00;;;0.98;;
25479;SDS011;13393;49.378;8.686;2023-05-16T11:36:40;4.43;;;1.40;;
25479;SDS011;13393;49.378;8.686;2023-05-16T11:39:06;2.08;;;1.20;;
25479;SDS011;13393;49.378;8.686;2023-05-16T11:41:34;1.40;;;1.08;;
25479;SDS011;13393;49.378;8.686;2023-05-16T11:44:02;2.65;;;1.50;;
25479;SDS011;13393;49.378;8.686;2023-05-16T11:46:29;2.65;;;1.00;;
25479;SDS011;13393;49.378;8.686;2023-05-16T11:48:56;5.97;;;1.13;;
25479;SDS011;13393;49.378;8.686;2023-05-16T11:51:23;3.35;;;1.10;;
25479;SDS011;13393;49.378;8.686;2023-05-16T11:53:49;2.08;;;1.13;;
25479;SDS011;13393;49.378;8.686;2023-05-16T11:56:16;2.60;;;1.30;;
25479;SDS011;13393;49.378;8.686;2023-05-16T11:58:42;1.23;;;1.10;;
25479;SDS011;13393;49.378;8.686;2023-05-16T12:01:11;4.28;;;1.45;;
25479;SDS011;13393;49.378;8.686;2023-05-16T12:03:37;1.92;;;1.00;;
25479;SDS011;13393;49.378;8.686;2023-05-16T12:06:03;3.60;;;1.80;;
25479;SDS011;13393;49.378;8.686;2023-05-16T12:08:30;2.70;;;1.85;;
25479;SDS011;13393;49.378;8.686;2023-05-16T12:10:56;2.40;;;1.23;;
25479;SDS011;13393;49.378;8.686;2023-05-16T12:13:23;1.70;;;1.20;;
25479;SDS011;13393;49.378;8.686;2023-05-16T12:15:50;2.53;;;1.40;;
25479;SDS011;13393;49.378;8.686;2023-05-16T12:18:18;3.30;;;1.35;;
25479;SDS011;13393;49.378;8.686;2023-05-16T12:20:45;2.13;;;1.52;;
25479;SDS011;13393;49.378;8.686;2023-05-16T12:23:11;2.63;;;1.20;;
25479;SDS011;13393;49.378;8.686;2023-05-16T12:25:38;4.72;;;1.30;;
25479;SDS011;13393;49.378;8.686;2023-05-16T12:28:07;2.15;;;1.23;;
25479;SDS011;13393;49.378;8.686;2023-05-16T12:30:34;5.03;;;1.45;;
25479;SDS011;13393;49.378;8.686;2023-05-16T12:33:01;5.47;;;1.75;;
25479;SDS011;13393;49.378;8.686;2023-05-16T12:35:30;3.40;;;1.35;;
25479;SDS011;13393;49.378;8.686;2023-05-16T12:38:02;2.58;;;1.25;;
25479;SDS011;13393;49.378;8.686;2023-05-16T12:40:29;5.85;;;1.50;;
25479;SDS011;13393;49.378;8.686;2023-05-16T12:42:55;2.50;;;1.30;;
25479;SDS011;13393;49.378;8.686;2023-05-16T12:45:22;7.30;;;1.42;;
25479;SDS011;13393;49.378;8.686;2023-05-16T12:47:49;3.50;;;1.83;;
25479;SDS011;13393;49.378;8.686;2023-05-16T12:50:15;3.60;;;1.30;;
25479;SDS011;13393;49.378;8.686;2023-05-16T12:52:47;2.25;;;1.55;;
25479;SDS011;13393;49.378;8.686;2023-05-16T12:55:14;7.32;;;1.58;;
25479;SDS011;13393;49.378;8.686;2023-05-16T12:57:41;3.10;;;1.60;;
25479;SDS011;13393;49.378;8.686;2023-05-16T13:00:08;4.10;;;1.98;;
25479;SDS011;13393;49.378;8.686;2023-05-16T13:02:35;4.80;;;1.75;;
25479;SDS011;13393;49.378;8.686;2023-05-16T13:05:02;5.40;;;1.67;;
25479;SDS011;13393;49.378;8.686;2023-05-16T13:07:28;4.05;;;1.63;;
25479;SDS011;13393;49.378;8.686;2023-05-16T13:09:56;4.85;;;1.88;;
25479;SDS011;13393;49.378;8.686;2023-05-16T13:12:22;4.30;;;1.80;;
25479;SDS011;13393;49.378;8.686;2023-05-16T13:14:51;3.40;;;1.45;;
25479;SDS011;13393;49.378;8.686;2023-05-16T13:17:17;4.65;;;1.75;;
25479;SDS011;13393;49.378;8.686;2023-05-16T13:19:43;4.93;;;1.75;;
25479;SDS011;13393;49.378;8.686;2023-05-16T13:22:10;5.25;;;1.63;;
25479;SDS011;13393;49.378;8.686;2023-05-16T13:24:37;6.07;;;1.95;;
25479;SDS011;13393;49.378;8.686;2023-05-16T13:27:04;3.83;;;1.90;;
25479;SDS011;13393;49.378;8.686;2023-05-16T13:29:31;7.90;;;2.15;;
25479;SDS011;13393;49.378;8.686;2023-05-16T13:31:57;10.93;;;2.22;;
25479;SDS011;13393;49.378;8.686;2023-05-16T13:34:23;5.28;;;2.42;;
25479;SDS011;13393;49.378;8.686;2023-05-16T13:36:50;8.93;;;2.00;;
25479;SDS011;13393;49.378;8.686;2023-05-16T13:39:16;5.38;;;1.90;;
25479;SDS011;13393;49.378;8.686;2023-05-16T13:41:43;8.63;;;2.20;;
25479;SDS011;13393;49.378;8.686;2023-05-16T13:44:11;11.23;;;2.47;;
25479;SDS011;13393;49.378;8.686;2023-05-16T13:46:37;5.85;;;1.73;;
25479;SDS011;13393;49.378;8.686;2023-05-16T13:49:03;7.43;;;1.80;;
25479;SDS011;13393;49.378;8.686;2023-05-16T13:51:31;11.30;;;2.00;;
25479;SDS011;13393;49.378;8.686;2023-05-16T13:53:57;5.07;;;1.77;;
25479;SDS011;13393;49.378;8.686;2023-05-16T13:56:23;6.63;;;1.92;;
25479;SDS011;13393;49.378;8.686;2023-05-16T13:58:50;7.72;;;1.90;;
25479;SDS011;13393;49.378;8.686;2023-05-16T14:01:17;7.20;;;2.05;;
25479;SDS011;13393;49.378;8.686;2023-05-16T14:03:44;4.95;;;1.90;;
25479;SDS011;13393;49.378;8.686;2023-05-16T14:06:10;6.10;;;2.03;;
25479;SDS011;13393;49.378;8.686;2023-05-16T14:08:37;9.75;;;2.33;;
25479;SDS011;13393;49.378;8.686;2023-05-16T14:11:04;5.57;;;1.75;;
25479;SDS011;13393;49.378;8.686;2023-05-16T14:13:30;3.95;;;1.90;;
25479;SDS011;13393;49.378;8.686;2023-05-16T14:15:56;6.38;;;1.95;;
25479;SDS011;13393;49.378;8.686;2023-05-16T14:18:24;8.18;;;1.83;;
25479;SDS011;13393;49.378;8.686;2023-05-16T14:20:50;3.80;;;1.60;;
25479;SDS011;13393;49.378;8.686;2023-05-16T14:23:20;8.43;;;1.70;;
25479;SDS011;13393;49.378;8.686;2023-05-16T14:25:46;3.28;;;1.40;;
25479;SDS011;13393;49.378;8.686;2023-05-16T14:28:13;3.65;;;1.52;;
25479;SDS011;13393;49.378;8.686;2023-05-16T14:30:39;3.50;;;1.70;;
25479;SDS011;13393;49.378;8.686;2023-05-16T14:33:06;5.53;;;1.77;;
25479;SDS011;13393;49.378;8.686;2023-05-16T14:35:33;4.72;;;1.40;;
25479;SDS011;13393;49.378;8.686;2023-05-16T14:38:02;4.60;;;1.70;;
25479;SDS011;13393;49.378;8.686;2023-05-16T14:40:28;6.18;;;1.58;;